createdAt,value
2022-12-03T00:03:40.601Z,18.03344481605351
2022-12-03T00:10:10.786Z,18.267558528428093
2022-12-03T00:20:45.358Z,18.25083612040134
2022-12-03T00:34:45.147Z,18.735785953177256
2022-12-03T00:41:11.959Z,18.638795986622075
2022-12-03T00:47:39.241Z,18.65551839464883
2022-12-03T00:54:05.846Z,18.989966555183948
2022-12-03T01:00:33.081Z,18.859531772575252
2022-12-03T01:07:01.994Z,19.37458193979933
2022-12-03T01:20:36.463Z,19.896321070234112
2022-12-03T01:31:14.817Z,20.652173913043477
2022-12-03T01:37:42.889Z,20.82608695652174
2022-12-03T01:44:12.199Z,21.304347826086957
2022-12-03T01:54:00.365Z,22.157190635451506
2022-12-03T02:00:50.241Z,21.06354515050167
2022-12-03T02:13:17.547Z,22.307692307692307
2022-12-03T02:34:34.389Z,22.17391304347826
2022-12-03T02:45:30.212Z,23.234113712374583
2022-12-03T02:51:56.486Z,22.83277591973244
2022-12-03T03:03:33.718Z,22.779264214046822
2022-12-03T03:10:00.511Z,22.040133779264213
2022-12-03T03:23:07.117Z,22.60535117056856
2022-12-03T03:33:03.310Z,23.204013377926422
2022-12-03T03:39:59.195Z,22.93645484949833
2022-12-03T03:50:00.630Z,23.561872909698998
2022-12-03T03:58:26.039Z,23.48829431438127
2022-12-03T04:04:55.379Z,23.65886287625418
2022-12-03T04:11:24.928Z,23.956521739130434
2022-12-03T04:19:00.247Z,23.247491638795985
2022-12-03T04:25:28.506Z,23.65886287625418
2022-12-03T04:31:56.145Z,23.498327759197323
2022-12-03T04:44:27.714Z,23.899665551839465
2022-12-03T04:51:59.602Z,23.277591973244146
2022-12-03T04:58:28.443Z,23.535117056856187
2022-12-03T05:08:48.389Z,23.277591973244146
2022-12-03T05:18:29.911Z,24.120401337792643
2022-12-03T05:29:28.643Z,23.705685618729095
2022-12-03T05:41:58.206Z,24.531772575250837
2022-12-03T05:48:26.199Z,25.11705685618729
2022-12-03T05:54:56.829Z,25.006688963210703
2022-12-03T06:01:30.087Z,26.08026755852843
2022-12-03T06:22:42.161Z,26.270903010033443
2022-12-03T06:29:15.954Z,26.297658862876254
2022-12-03T06:35:47.964Z,26.387959866220736
2022-12-03T06:44:21.431Z,26.464882943143813
2022-12-03T06:57:12.778Z,27.103678929765888
2022-12-03T07:03:39.915Z,27.023411371237458
2022-12-03T07:10:45.456Z,27.862876254180602
2022-12-03T07:19:20.587Z,27.32441471571906
2022-12-03T07:26:04.895Z,27.123745819397993
2022-12-03T07:32:32.542Z,27.578595317725753
2022-12-03T07:39:00.437Z,27.782608695652176
2022-12-03T07:45:49.104Z,27.531772575250837
2022-12-03T07:52:17.696Z,27.91973244147157
2022-12-03T07:58:46.808Z,27.735785953177256
2022-12-03T08:07:31.306Z,27.83277591973244
2022-12-03T08:20:15.351Z,27.421404682274247
2022-12-03T08:28:08.172Z,27.387959866220736
2022-12-03T08:34:36.971Z,27.421404682274247
2022-12-03T08:48:33.088Z,28.05016722408027
2022-12-03T08:58:51.899Z,29.337792642140467
2022-12-03T09:11:23.815Z,29.120401337792643
2022-12-03T09:22:36.378Z,29.525083612040135
2022-12-03T09:29:11.861Z,29.953177257525084
2022-12-03T09:41:41.511Z,28.816053511705686
2022-12-03T09:50:27.532Z,29.608695652173914
2022-12-03T10:03:22.045Z,29.107023411371237
2022-12-03T10:13:54.643Z,28.762541806020067
2022-12-03T10:20:21.856Z,28.692307692307693
2022-12-03T10:28:55.049Z,28.08361204013378
2022-12-03T10:40:58.140Z,27.431438127090303
2022-12-03T10:59:44.433Z,27.163879598662206
2022-12-03T11:06:13.756Z,27.274247491638796
2022-12-03T11:12:42.803Z,27.759197324414714
2022-12-03T11:22:27.444Z,25.762541806020067
2022-12-03T11:28:54.638Z,23.963210702341136
2022-12-03T11:35:23.087Z,24.22742474916388
2022-12-03T11:41:53.969Z,24.367892976588628
2022-12-03T11:49:05.063Z,22.752508361204015
2022-12-03T11:55:33.970Z,20.869565217391305
2022-12-03T12:03:25.650Z,20.652173913043477
2022-12-03T12:09:55.335Z,20.879598662207357
2022-12-03T12:16:25.860Z,21.387959866220736
2022-12-03T12:22:54.246Z,22.50836120401338
2022-12-03T12:29:22.814Z,21.217391304347824
2022-12-03T12:41:12.447Z,19.34448160535117
2022-12-03T12:53:16.222Z,20.0
2022-12-03T12:59:45.201Z,19.193979933110366
2022-12-03T13:06:13.123Z,19.31103678929766
2022-12-03T13:12:41.380Z,18.632107023411372
2022-12-03T13:26:58.877Z,18.849498327759196
2022-12-03T13:44:42.054Z,19.806020066889634
2022-12-03T13:51:13.115Z,21.17725752508361
2022-12-03T14:00:09.919Z,21.60200668896321
2022-12-03T14:09:08.089Z,21.5752508361204
2022-12-03T14:15:39.446Z,22.153846153846153
2022-12-03T14:30:15.984Z,22.581939799331103
2022-12-03T14:37:01.933Z,22.220735785953178
2022-12-03T14:43:48.081Z,22.531772575250837
2022-12-03T14:50:17.114Z,23.150501672240804
2022-12-03T14:56:47.257Z,23.54515050167224
2022-12-03T15:06:46.992Z,24.759197324414714
2022-12-03T15:13:15.289Z,24.08695652173913
2022-12-03T15:19:43.673Z,24.581939799331103
2022-12-03T15:28:21.835Z,23.99665551839465
2022-12-03T15:40:39.720Z,24.4247491638796
2022-12-03T15:53:46.698Z,25.809364548494983
2022-12-03T16:00:12.905Z,26.19732441471572
2022-12-03T16:09:49.167Z,26.123745819397993
2022-12-03T16:17:56.490Z,26.608695652173914
2022-12-03T16:31:40.618Z,27.97993311036789
2022-12-03T16:39:18.310Z,28.234113712374583
2022-12-03T16:45:45.576Z,30.775919732441473
2022-12-03T16:53:01.038Z,29.588628762541806
2022-12-03T16:59:28.557Z,31.267558528428093
2022-12-03T17:07:15.775Z,30.96655518394649
2022-12-03T17:13:43.305Z,31.923076923076923
2022-12-03T17:20:11.106Z,32.852842809364546
2022-12-03T17:26:38.742Z,32.49832775919732
2022-12-03T17:34:05.148Z,34.21739130434783
2022-12-03T17:43:49.456Z,34.78260869565217
2022-12-03T17:51:00.739Z,39.331103678929765
2022-12-03T18:02:38.416Z,35.91304347826087
2022-12-03T18:09:53.879Z,34.046822742474916
2022-12-03T18:18:34.118Z,38.88294314381271
2022-12-03T18:31:03.766Z,41.51505016722408
2022-12-03T18:41:36.628Z,36.625418060200666
2022-12-03T18:58:10.313Z,29.785953177257525
2022-12-03T19:04:41.895Z,34.72909698996656
2022-12-03T19:11:09.381Z,31.638795986622075
2022-12-03T19:18:20.918Z,31.29096989966555
2022-12-03T19:24:48.078Z,30.096989966555185
2022-12-03T19:36:30.450Z,31.76923076923077
2022-12-03T19:42:57.258Z,31.585284280936456
2022-12-03T19:49:24.553Z,33.37792642140468
2022-12-03T19:59:39.975Z,32.51505016722408
2022-12-03T20:10:50.626Z,33.36789297658863
2022-12-03T20:21:19.265Z,33.96655518394649
2022-12-03T20:32:31.499Z,34.33444816053512
2022-12-03T20:45:41.177Z,34.42140468227425
2022-12-03T20:52:09.324Z,34.986622073578594
2022-12-03T21:02:56.437Z,33.79598662207358
2022-12-03T21:09:26.250Z,34.0
2022-12-03T21:15:54.804Z,34.18394648829432
2022-12-03T21:49:26.606Z,35.64882943143812
2022-12-03T22:00:32.849Z,37.247491638795985
2022-12-03T22:07:00.305Z,36.79598662207358
2022-12-03T22:19:46.167Z,36.23411371237458
2022-12-03T22:26:13.509Z,36.10033444816054
2022-12-03T22:32:41.193Z,36.4314381270903
2022-12-03T22:39:08.320Z,36.48494983277592
2022-12-03T22:54:51.454Z,35.40468227424749
2022-12-03T23:01:18.682Z,35.046822742474916
2022-12-03T23:10:19.647Z,34.93979933110368
2022-12-03T23:17:45.173Z,34.15719063545151
2022-12-03T23:29:09.027Z,34.39799331103679
2022-12-03T23:35:37.333Z,33.561872909699
2022-12-03T23:52:23.039Z,33.74916387959866
2022-12-03T23:58:52.802Z,33.2943143812709
